createdAt,value
2023-04-16T00:00:53.372Z,46.97
2023-04-16T00:03:22.811Z,46.90
2023-04-16T00:05:51.329Z,46.83
2023-04-16T00:08:19.151Z,47.00
2023-04-16T00:10:46.920Z,47.00
2023-04-16T00:13:14.701Z,46.93
2023-04-16T00:15:42.513Z,46.83
2023-04-16T00:18:10.356Z,47.10
2023-04-16T00:20:39.564Z,46.93
2023-04-16T00:23:07.423Z,47.17
2023-04-16T00:25:35.254Z,46.90
2023-04-16T00:28:03.070Z,47.13
2023-04-16T00:30:31.001Z,46.77
2023-04-16T00:32:58.888Z,47.03
2023-04-16T00:35:26.917Z,47.00
2023-04-16T00:37:56.358Z,47.00
2023-04-16T00:40:24.455Z,47.17
2023-04-16T00:42:52.536Z,47.20
2023-04-16T00:45:20.373Z,46.93
2023-04-16T00:47:48.373Z,47.23
2023-04-16T00:50:17.484Z,46.80
2023-04-16T00:52:47.200Z,47.10
2023-04-16T00:55:18.514Z,47.17
2023-04-16T00:57:46.823Z,46.97
2023-04-16T01:00:15.364Z,46.87
2023-04-16T01:02:43.278Z,46.93
2023-04-16T01:05:11.419Z,47.07
2023-04-16T01:07:39.287Z,47.17
2023-04-16T01:10:08.214Z,47.03
2023-04-16T01:12:37.437Z,46.90
2023-04-16T01:15:06.035Z,47.23
2023-04-16T01:17:33.884Z,47.03
2023-04-16T01:20:01.944Z,46.97
2023-04-16T01:22:31.448Z,47.13
2023-04-16T01:24:59.349Z,46.60
2023-04-16T01:27:27.173Z,46.93
2023-04-16T01:29:56.172Z,46.80
2023-04-16T01:32:33.212Z,47.17
2023-04-16T01:35:01.076Z,47.03
2023-04-16T01:37:28.938Z,46.70
2023-04-16T01:39:58.128Z,46.97
2023-04-16T01:42:25.933Z,47.13
2023-04-16T01:44:53.831Z,47.07
2023-04-16T01:47:21.825Z,46.97
2023-04-16T01:49:49.719Z,46.90
2023-04-16T01:52:17.495Z,47.30
2023-04-16T01:54:45.302Z,47.30
2023-04-16T01:57:14.478Z,47.17
2023-04-16T01:59:42.259Z,47.07
2023-04-16T02:02:11.906Z,46.90
2023-04-16T02:04:40.641Z,46.97
2023-04-16T02:07:09.323Z,47.43
2023-04-16T02:09:37.656Z,47.07
2023-04-16T02:12:07.956Z,47.57
2023-04-16T02:14:37.143Z,47.40
2023-04-16T02:17:05.963Z,47.27
2023-04-16T02:19:37.837Z,47.10
2023-04-16T02:22:06.317Z,47.03
2023-04-16T02:24:34.287Z,47.03
2023-04-16T02:27:06.677Z,46.97
2023-04-16T02:29:34.476Z,47.17
2023-04-16T02:32:11.471Z,46.97
2023-04-16T02:34:40.085Z,47.10
2023-04-16T02:37:08.148Z,47.07
2023-04-16T02:39:36.322Z,46.87
2023-04-16T02:42:04.301Z,47.10
2023-04-16T02:44:32.225Z,46.73
2023-04-16T02:47:00.242Z,46.90
2023-04-16T02:49:29.363Z,47.10
2023-04-16T02:51:57.193Z,47.07
2023-04-16T02:54:25.191Z,47.10
2023-04-16T02:56:53.001Z,46.90
2023-04-16T02:59:20.992Z,47.07
2023-04-16T03:01:48.950Z,46.93
2023-04-16T03:04:16.974Z,47.30
2023-04-16T03:06:46.177Z,47.20
2023-04-16T03:09:14.876Z,46.97
2023-04-16T03:11:42.687Z,47.10
2023-04-16T03:14:11.655Z,46.83
2023-04-16T03:16:39.485Z,47.23
2023-04-16T03:19:07.427Z,46.90
2023-04-16T03:21:35.277Z,46.97
2023-04-16T03:24:04.547Z,47.17
2023-04-16T03:26:32.418Z,46.80
2023-04-16T03:29:01.978Z,46.97
2023-04-16T03:31:31.831Z,46.97
2023-04-16T03:34:00.435Z,46.83
2023-04-16T03:36:28.430Z,47.10
2023-04-16T03:38:57.208Z,46.87
2023-04-16T03:41:26.924Z,47.40
2023-04-16T03:43:54.751Z,46.80
2023-04-16T03:46:23.488Z,47.03
2023-04-16T03:48:51.489Z,46.80
2023-04-16T03:51:19.633Z,47.10
2023-04-16T03:53:47.424Z,47.10
2023-04-16T03:56:16.114Z,47.20
2023-04-16T03:58:45.303Z,46.87
2023-04-16T04:01:13.188Z,46.90
2023-04-16T04:03:41.558Z,47.20
2023-04-16T04:06:09.839Z,47.40
2023-04-16T04:08:37.963Z,47.07
2023-04-16T04:11:06.765Z,47.20
2023-04-16T04:13:35.998Z,47.30
2023-04-16T04:16:07.075Z,47.17
2023-04-16T04:18:34.914Z,47.10
2023-04-16T04:21:06.489Z,47.17
2023-04-16T04:23:34.844Z,47.07
2023-04-16T04:26:03.859Z,47.10
2023-04-16T04:28:32.292Z,47.10
2023-04-16T04:31:01.158Z,47.20
2023-04-16T04:33:32.937Z,47.23
2023-04-16T04:36:00.877Z,47.00
2023-04-16T04:38:30.324Z,47.10
2023-04-16T04:40:59.663Z,47.33
2023-04-16T04:43:30.065Z,46.70
2023-04-16T04:45:57.913Z,47.13
2023-04-16T04:48:28.354Z,47.17
2023-04-16T04:50:57.853Z,47.27
2023-04-16T04:53:25.841Z,46.93
2023-04-16T04:55:55.672Z,46.90
2023-04-16T04:58:26.507Z,46.83
2023-04-16T05:00:54.324Z,47.33
2023-04-16T05:03:22.686Z,47.20
2023-04-16T05:05:50.703Z,46.93
2023-04-16T05:08:19.859Z,46.90
2023-04-16T05:10:47.678Z,46.90
2023-04-16T05:13:15.452Z,47.13
2023-04-16T05:15:44.518Z,47.03
2023-04-16T05:18:12.415Z,47.00
2023-04-16T05:20:40.372Z,47.20
2023-04-16T05:23:08.511Z,47.27
2023-04-16T05:25:37.871Z,46.97
2023-04-16T05:28:06.061Z,47.30
2023-04-16T05:30:33.885Z,47.20
2023-04-16T05:33:01.673Z,47.00
2023-04-16T05:35:29.460Z,47.00
2023-04-16T05:37:57.262Z,47.07
2023-04-16T05:40:25.255Z,47.00
2023-04-16T05:42:54.376Z,47.30
2023-04-16T05:45:22.241Z,47.30
2023-04-16T05:47:50.163Z,47.07
2023-04-16T05:50:18.106Z,47.13
2023-04-16T05:52:46.065Z,47.33
2023-04-16T05:55:13.839Z,47.40
2023-04-16T05:57:41.662Z,47.03
2023-04-16T06:00:11.536Z,46.63
2023-04-16T06:02:42.302Z,46.70
2023-04-16T06:05:10.629Z,46.67
2023-04-16T06:07:38.507Z,46.37
2023-04-16T06:10:07.351Z,46.17
2023-04-16T06:12:35.275Z,46.37
2023-04-16T06:15:03.597Z,46.37
2023-04-16T06:17:32.822Z,46.50
2023-04-16T06:20:00.802Z,46.23
2023-04-16T06:22:28.687Z,46.37
2023-04-16T06:24:56.454Z,46.37
2023-04-16T06:27:24.281Z,46.20
2023-04-16T06:29:52.125Z,46.27
2023-04-16T06:32:20.101Z,46.30
2023-04-16T06:34:49.267Z,46.10
2023-04-16T06:37:17.187Z,46.47
2023-04-16T06:39:45.203Z,46.10
2023-04-16T06:42:13.056Z,46.13
2023-04-16T06:44:40.827Z,45.93
2023-04-16T06:47:09.006Z,46.20
2023-04-16T06:49:36.814Z,46.13
2023-04-16T06:52:06.217Z,46.43
2023-04-16T06:54:34.080Z,45.93
2023-04-16T06:57:01.963Z,46.23
2023-04-16T06:59:29.870Z,46.33
2023-04-16T07:01:58.017Z,45.90
2023-04-16T07:04:26.041Z,46.03
2023-04-16T07:06:54.006Z,46.30
2023-04-16T07:09:23.243Z,46.20
2023-04-16T07:11:51.030Z,46.13
2023-04-16T07:14:18.872Z,46.07
2023-04-16T07:16:46.792Z,46.17
2023-04-16T07:19:14.572Z,46.13
2023-04-16T07:21:43.622Z,46.10
2023-04-16T07:24:11.631Z,46.07
2023-04-16T07:26:40.941Z,45.97
2023-04-16T07:29:08.974Z,46.17
2023-04-16T07:31:37.156Z,46.20
2023-04-16T07:34:04.991Z,46.23
2023-04-16T07:36:32.861Z,46.20
2023-04-16T07:39:00.905Z,46.43
2023-04-16T07:41:29.421Z,46.30
2023-04-16T07:43:58.780Z,46.40
2023-04-16T07:46:30.618Z,46.60
2023-04-16T07:49:07.597Z,46.50
2023-04-16T07:51:35.458Z,46.70
2023-04-16T07:54:03.278Z,46.50
2023-04-16T07:56:31.136Z,46.47
2023-04-16T07:59:14.476Z,46.30
2023-04-16T08:01:46.874Z,46.33
2023-04-16T08:04:17.016Z,46.70
2023-04-16T08:06:44.907Z,46.17
2023-04-16T08:09:12.723Z,46.57
2023-04-16T08:11:40.557Z,46.40
2023-04-16T08:14:09.713Z,46.50
2023-04-16T08:16:38.702Z,46.37
2023-04-16T08:19:06.479Z,46.27
2023-04-16T08:21:34.733Z,46.37
2023-04-16T08:24:02.524Z,46.47
2023-04-16T08:26:30.482Z,46.73
2023-04-16T08:28:58.245Z,46.63
2023-04-16T08:31:27.558Z,46.63
2023-04-16T08:33:55.415Z,46.73
2023-04-16T08:36:23.182Z,46.50
2023-04-16T08:38:52.257Z,46.77
2023-04-16T08:41:22.872Z,46.90
2023-04-16T08:43:52.483Z,46.57
2023-04-16T08:46:23.666Z,46.53
2023-04-16T08:48:56.686Z,46.60
2023-04-16T08:51:24.923Z,46.40
2023-04-16T08:53:54.484Z,46.87
2023-04-16T08:56:24.841Z,46.67
2023-04-16T08:58:55.461Z,46.90
2023-04-16T09:01:23.624Z,46.87
2023-04-16T09:03:53.592Z,46.80
2023-04-16T09:06:21.572Z,47.37
2023-04-16T09:08:50.024Z,47.43
2023-04-16T09:11:19.244Z,47.53
2023-04-16T09:13:47.378Z,47.80
2023-04-16T09:16:15.781Z,47.97
2023-04-16T09:18:43.697Z,48.37
2023-04-16T09:21:14.381Z,48.20
2023-04-16T09:23:43.233Z,48.10
2023-04-16T09:26:11.057Z,47.93
2023-04-16T09:28:40.592Z,48.27
2023-04-16T09:31:15.697Z,48.17
2023-04-16T09:33:44.701Z,47.60
2023-04-16T09:36:13.847Z,47.67
2023-04-16T09:38:48.661Z,47.73
2023-04-16T09:41:17.450Z,47.57
2023-04-16T09:43:56.340Z,47.57
2023-04-16T09:46:24.637Z,47.90
2023-04-16T09:48:52.429Z,47.83
2023-04-16T09:51:21.639Z,47.43
2023-04-16T09:53:53.105Z,47.63
2023-04-16T09:56:25.368Z,47.70
2023-04-16T09:58:57.967Z,47.43
2023-04-16T10:01:26.089Z,47.40
2023-04-16T10:03:56.380Z,47.57
2023-04-16T10:06:27.089Z,47.67
2023-04-16T10:08:57.046Z,47.40
2023-04-16T10:11:25.773Z,47.67
2023-04-16T10:13:53.560Z,47.60
2023-04-16T10:16:23.829Z,47.83
2023-04-16T10:18:51.785Z,47.57
2023-04-16T10:21:20.247Z,47.57
2023-04-16T10:23:50.208Z,47.67
2023-04-16T10:26:19.566Z,48.20
2023-04-16T10:28:47.476Z,47.87
2023-04-16T10:31:15.694Z,48.27
2023-04-16T10:33:44.859Z,48.13
2023-04-16T10:36:14.331Z,47.70
2023-04-16T10:38:45.687Z,47.90
2023-04-16T10:41:15.149Z,47.70
2023-04-16T10:43:44.938Z,47.97
2023-04-16T10:46:23.382Z,47.93
2023-04-16T10:48:53.864Z,47.80
2023-04-16T10:51:27.644Z,47.87
2023-04-16T10:53:56.459Z,47.67
2023-04-16T10:56:27.149Z,48.07
2023-04-16T10:58:56.743Z,48.00
2023-04-16T11:01:33.055Z,47.70
2023-04-16T11:04:02.805Z,47.67
2023-04-16T11:06:31.866Z,47.97
2023-04-16T11:08:59.703Z,47.50
2023-04-16T11:11:38.773Z,47.73
2023-04-16T11:14:09.263Z,47.63
2023-04-16T11:16:41.344Z,47.67
2023-04-16T11:19:09.381Z,47.70
2023-04-16T11:21:37.354Z,47.37
2023-04-16T11:24:05.422Z,47.87
2023-04-16T11:26:34.981Z,47.70
2023-04-16T11:29:04.732Z,47.87
2023-04-16T11:31:32.584Z,47.57
2023-04-16T11:34:00.874Z,47.43
2023-04-16T11:36:28.717Z,47.80
2023-04-16T11:39:04.012Z,48.07
2023-04-16T11:41:31.956Z,48.00
2023-04-16T11:44:01.244Z,48.07
2023-04-16T11:46:40.477Z,48.10
2023-04-16T11:49:08.681Z,47.60
2023-04-16T11:51:41.076Z,48.03
2023-04-16T11:54:11.892Z,47.77
2023-04-16T11:56:46.042Z,47.47
2023-04-16T11:59:16.898Z,47.67
2023-04-16T12:01:49.107Z,47.33
2023-04-16T12:04:18.171Z,47.67
2023-04-16T12:07:10.932Z,47.50
2023-04-16T12:09:40.727Z,47.50
2023-04-16T12:12:27.005Z,47.70
2023-04-16T12:14:56.756Z,47.87
2023-04-16T12:17:25.367Z,47.73
2023-04-16T12:19:56.501Z,47.70
2023-04-16T12:22:31.645Z,47.77
2023-04-16T12:25:00.635Z,47.87
2023-04-16T12:27:43.115Z,48.17
2023-04-16T12:30:13.448Z,47.60
2023-04-16T12:32:41.939Z,47.73
2023-04-16T12:35:10.818Z,47.70
2023-04-16T12:37:39.176Z,47.80
2023-04-16T12:40:08.529Z,47.73
2023-04-16T12:42:36.717Z,47.70
2023-04-16T12:45:05.643Z,47.67
2023-04-16T12:47:34.906Z,48.03
2023-04-16T12:50:02.773Z,47.47
2023-04-16T12:52:30.875Z,47.73
2023-04-16T12:54:58.673Z,47.77
2023-04-16T12:57:28.616Z,47.70
2023-04-16T12:59:57.169Z,47.80
2023-04-16T13:02:25.419Z,47.87
2023-04-16T13:04:55.207Z,47.73
2023-04-16T13:07:24.033Z,47.80
2023-04-16T13:09:51.915Z,47.63
2023-04-16T13:12:19.842Z,47.60
2023-04-16T13:14:49.499Z,47.50
2023-04-16T13:17:17.321Z,47.73
2023-04-16T13:19:45.652Z,47.57
2023-04-16T13:22:14.880Z,47.50
2023-04-16T13:24:42.741Z,47.70
2023-04-16T13:27:11.248Z,47.70
2023-04-16T13:29:39.069Z,47.80
2023-04-16T13:32:07.384Z,47.93
2023-04-16T13:34:35.716Z,47.80
2023-04-16T13:37:03.511Z,47.80
2023-04-16T13:39:32.702Z,47.87
2023-04-16T13:42:00.529Z,47.57
2023-04-16T13:44:28.324Z,48.00
2023-04-16T13:46:56.202Z,47.73
2023-04-16T13:49:26.054Z,47.80
2023-04-16T13:51:53.851Z,48.20
2023-04-16T13:54:21.626Z,47.90
2023-04-16T13:56:51.872Z,47.60
2023-04-16T13:59:20.642Z,47.97
2023-04-16T14:01:48.526Z,47.67
2023-04-16T14:04:16.501Z,47.70
2023-04-16T14:06:44.354Z,47.87
2023-04-16T14:09:12.259Z,47.73
2023-04-16T14:11:40.271Z,47.87
2023-04-16T14:14:09.510Z,47.80
2023-04-16T14:16:37.366Z,47.60
2023-04-16T14:19:05.240Z,47.87
2023-04-16T14:21:33.054Z,47.83
2023-04-16T14:24:00.847Z,48.17
2023-04-16T14:26:28.707Z,47.97
2023-04-16T14:28:56.482Z,48.00
2023-04-16T14:31:26.092Z,47.87
2023-04-16T14:33:53.959Z,47.90
2023-04-16T14:36:21.784Z,47.87
2023-04-16T14:38:49.624Z,47.87
2023-04-16T14:41:17.445Z,47.73
2023-04-16T14:43:45.282Z,48.17
2023-04-16T14:46:13.335Z,48.10
2023-04-16T14:48:42.598Z,48.13
2023-04-16T14:51:10.484Z,47.53
2023-04-16T14:53:38.556Z,47.77
2023-04-16T14:56:06.796Z,47.97
2023-04-16T14:58:37.253Z,47.53
2023-04-16T15:01:06.572Z,48.13
2023-04-16T15:03:34.500Z,48.00
2023-04-16T15:06:03.848Z,48.17
2023-04-16T15:08:31.782Z,47.77
2023-04-16T15:10:59.571Z,48.07
2023-04-16T15:13:33.474Z,48.20
2023-04-16T15:16:01.379Z,47.97
2023-04-16T15:18:29.510Z,48.13
2023-04-16T15:20:57.471Z,47.83
2023-04-16T15:23:26.586Z,48.17
2023-04-16T15:25:54.480Z,48.13
2023-04-16T15:28:22.266Z,47.63
2023-04-16T15:30:50.334Z,48.07
2023-04-16T15:33:18.195Z,48.23
2023-04-16T15:35:46.011Z,48.07
2023-04-16T15:38:13.887Z,47.93
2023-04-16T15:40:43.028Z,47.93
2023-04-16T15:43:10.945Z,48.00
2023-04-16T15:45:38.912Z,47.87
2023-04-16T15:48:07.341Z,47.83
2023-04-16T15:50:37.279Z,48.03
2023-04-16T15:53:05.030Z,47.57
2023-04-16T15:55:32.864Z,48.00
2023-04-16T15:58:02.030Z,48.07
2023-04-16T16:00:29.917Z,47.80
2023-04-16T16:02:58.029Z,47.70
2023-04-16T16:05:26.173Z,48.03
2023-04-16T16:07:54.440Z,48.00
2023-04-16T16:10:22.345Z,48.07
2023-04-16T16:12:50.149Z,47.73
2023-04-16T16:15:19.301Z,48.03
2023-04-16T16:17:47.111Z,48.17
2023-04-16T16:20:15.716Z,47.57
2023-04-16T16:22:45.154Z,48.03
2023-04-16T16:25:13.173Z,48.37
2023-04-16T16:27:41.974Z,47.93
2023-04-16T16:30:10.804Z,47.87
2023-04-16T16:32:40.965Z,47.63
2023-04-16T16:35:09.727Z,48.10
2023-04-16T16:37:37.745Z,47.83
2023-04-16T16:40:06.288Z,48.03
2023-04-16T16:42:34.257Z,47.60
2023-04-16T16:45:05.024Z,48.10
2023-04-16T16:47:33.097Z,47.57
2023-04-16T16:50:03.094Z,47.77
2023-04-16T16:52:31.214Z,47.83
2023-04-16T16:54:59.035Z,47.93
2023-04-16T16:57:26.945Z,47.67
2023-04-16T16:59:55.564Z,47.87
2023-04-16T17:02:23.662Z,47.83
2023-04-16T17:04:52.632Z,47.90
2023-04-16T17:07:21.795Z,47.93
2023-04-16T17:09:49.574Z,47.57
2023-04-16T17:12:17.637Z,47.70
2023-04-16T17:14:45.826Z,47.67
2023-04-16T17:17:13.619Z,47.60
2023-04-16T17:19:41.369Z,47.50
2023-04-16T17:22:09.550Z,47.87
2023-04-16T17:24:39.013Z,47.67
2023-04-16T17:27:06.836Z,47.37
2023-04-16T17:29:34.698Z,47.47
2023-04-16T17:32:02.611Z,47.57
2023-04-16T17:34:30.631Z,47.60
2023-04-16T17:36:58.460Z,47.53
2023-04-16T17:39:26.275Z,47.63
2023-04-16T17:41:58.356Z,47.67
2023-04-16T17:44:27.858Z,47.53
2023-04-16T17:46:55.687Z,47.53
2023-04-16T17:49:23.656Z,47.50
2023-04-16T17:51:51.473Z,47.30
2023-04-16T17:54:19.267Z,47.90
2023-04-16T17:56:47.126Z,47.37
2023-04-16T17:59:16.365Z,47.57
2023-04-16T18:01:44.391Z,47.30
2023-04-16T18:04:12.626Z,47.30
2023-04-16T18:06:41.246Z,47.53
2023-04-16T18:09:09.085Z,47.50
2023-04-16T18:11:37.234Z,47.43
2023-04-16T18:14:05.104Z,47.40
2023-04-16T18:16:34.262Z,47.63
2023-04-16T18:19:02.083Z,47.40
2023-04-16T18:21:30.314Z,47.57
2023-04-16T18:23:58.626Z,47.27
2023-04-16T18:26:29.683Z,47.30
2023-04-16T18:28:57.863Z,47.50
2023-04-16T18:31:25.739Z,47.43
2023-04-16T18:33:57.903Z,47.43
2023-04-16T18:36:27.192Z,47.67
2023-04-16T18:39:01.061Z,47.70
2023-04-16T18:41:30.635Z,47.77
2023-04-16T18:43:58.493Z,47.70
2023-04-16T18:46:27.177Z,47.53
2023-04-16T18:48:56.399Z,47.63
2023-04-16T18:51:24.840Z,47.77
2023-04-16T18:53:52.647Z,47.87
2023-04-16T18:56:20.822Z,47.70
2023-04-16T18:58:49.215Z,47.77
2023-04-16T19:01:17.826Z,47.93
2023-04-16T19:03:46.007Z,47.67
2023-04-16T19:06:15.277Z,47.80
2023-04-16T19:08:43.087Z,47.77
2023-04-16T19:11:10.889Z,48.00
2023-04-16T19:13:39.110Z,48.10
2023-04-16T19:16:11.151Z,47.80
2023-04-16T19:18:39.660Z,47.97
2023-04-16T19:21:09.879Z,47.77
2023-04-16T19:23:39.000Z,47.97
2023-04-16T19:26:06.844Z,47.53
2023-04-16T19:28:34.654Z,48.00
2023-04-16T19:31:02.454Z,47.70
2023-04-16T19:33:31.194Z,47.90
2023-04-16T19:35:59.402Z,47.70
2023-04-16T19:38:27.290Z,47.83
2023-04-16T19:40:56.519Z,47.97
2023-04-16T19:43:24.478Z,47.93
2023-04-16T19:45:53.355Z,47.90
2023-04-16T19:48:21.677Z,47.80
2023-04-16T19:50:49.757Z,48.27
2023-04-16T19:53:17.809Z,47.93
2023-04-16T19:55:45.641Z,47.77
2023-04-16T19:58:14.976Z,47.73
2023-04-16T20:00:43.085Z,47.67
2023-04-16T20:03:11.110Z,47.83
2023-04-16T20:05:39.070Z,47.77
2023-04-16T20:08:07.453Z,47.90
2023-04-16T20:10:35.981Z,47.87
2023-04-16T20:13:04.807Z,47.93
2023-04-16T20:15:33.993Z,47.77
2023-04-16T20:18:01.874Z,47.47
2023-04-16T20:20:29.683Z,47.90
2023-04-16T20:22:58.186Z,47.83
2023-04-16T20:25:26.473Z,47.90
2023-04-16T20:27:54.268Z,47.60
2023-04-16T20:30:24.411Z,47.90
2023-04-16T20:32:53.566Z,48.07
2023-04-16T20:35:21.443Z,47.70
2023-04-16T20:37:49.232Z,47.97
2023-04-16T20:40:17.079Z,47.77
2023-04-16T20:42:46.295Z,47.73
2023-04-16T20:45:14.328Z,47.70
2023-04-16T20:47:43.369Z,47.70
2023-04-16T20:50:13.522Z,47.33
2023-04-16T20:52:42.156Z,48.03
2023-04-16T20:55:10.531Z,47.93
2023-04-16T20:57:38.389Z,47.83
2023-04-16T21:00:11.495Z,47.70
2023-04-16T21:02:39.456Z,47.77
2023-04-16T21:05:08.896Z,47.60
2023-04-16T21:07:38.039Z,47.97
2023-04-16T21:10:06.667Z,47.50
2023-04-16T21:12:34.432Z,47.60
2023-04-16T21:15:02.524Z,47.83
2023-04-16T21:17:30.410Z,47.87
2023-04-16T21:19:58.356Z,47.30
2023-04-16T21:22:26.286Z,47.67
2023-04-16T21:24:55.434Z,47.60
2023-04-16T21:27:23.257Z,47.70
2023-04-16T21:29:51.762Z,47.63
2023-04-16T21:32:19.548Z,47.80
2023-04-16T21:34:47.342Z,47.83
2023-04-16T21:37:15.127Z,47.87
2023-04-16T21:39:42.945Z,47.63
2023-04-16T21:42:12.516Z,47.77
2023-04-16T21:44:40.407Z,47.87
2023-04-16T21:47:08.333Z,47.60
2023-04-16T21:49:36.132Z,47.70
2023-04-16T21:52:04.036Z,47.67
2023-04-16T21:54:31.840Z,47.87
2023-04-16T21:56:59.615Z,47.93
2023-04-16T21:59:28.779Z,47.77
2023-04-16T22:01:56.692Z,47.77
2023-04-16T22:04:26.423Z,47.77
2023-04-16T22:06:56.222Z,47.67
2023-04-16T22:09:24.690Z,47.97
2023-04-16T22:11:52.615Z,47.77
2023-04-16T22:14:20.427Z,47.60
2023-04-16T22:16:51.625Z,47.97
2023-04-16T22:19:19.712Z,47.60
2023-04-16T22:21:47.716Z,47.70
2023-04-16T22:24:15.586Z,47.80
2023-04-16T22:26:43.427Z,47.70
2023-04-16T22:29:11.384Z,48.03
2023-04-16T22:31:39.601Z,47.80
2023-04-16T22:34:08.971Z,47.77
2023-04-16T22:36:36.774Z,47.57
2023-04-16T22:39:08.243Z,47.57
2023-04-16T22:41:36.487Z,47.50
2023-04-16T22:44:04.470Z,47.73
2023-04-16T22:46:32.562Z,47.63
2023-04-16T22:49:00.687Z,47.67
2023-04-16T22:51:30.621Z,47.37
2023-04-16T22:53:58.383Z,47.73
2023-04-16T22:56:28.634Z,47.83
2023-04-16T22:58:56.495Z,47.70
2023-04-16T23:01:24.667Z,47.77
2023-04-16T23:03:53.507Z,47.97
2023-04-16T23:06:21.906Z,47.73
2023-04-16T23:08:51.194Z,47.97
2023-04-16T23:11:19.048Z,47.53
2023-04-16T23:13:46.868Z,47.67
2023-04-16T23:16:14.746Z,47.60
2023-04-16T23:18:42.593Z,47.67
2023-04-16T23:21:10.424Z,47.33
2023-04-16T23:23:38.203Z,47.53
2023-04-16T23:26:07.564Z,47.47
2023-04-16T23:28:35.333Z,47.50
2023-04-16T23:31:05.297Z,47.60
2023-04-16T23:33:34.499Z,47.67
2023-04-16T23:36:02.283Z,47.47
2023-04-16T23:38:30.610Z,47.60
2023-04-16T23:40:58.407Z,47.40
2023-04-16T23:43:27.583Z,47.50
2023-04-16T23:45:55.583Z,47.20
2023-04-16T23:48:23.356Z,47.27
2023-04-16T23:50:51.172Z,47.47
2023-04-16T23:53:18.979Z,47.40
2023-04-16T23:55:46.773Z,47.40
2023-04-16T23:58:14.550Z,47.27
